Time;durP1;ratioP1;P1;durP2;ratioP2;P2;SDS_P1;SDS_P2;PMS_P1;PMS_P2;Temp;Humidity;BMP_temperature;BMP_pressure;BME280_temperature;BME280_humidity;BME280_pressure;Samples;Min_cycle;Max_cycle;Signal;HPM_P1;HPM_P2
2023/07/06 00:01:04;;;;;;;2.97;1.52;;;16.20;98.30;;;15.98;79.01;97390.78;5012936;28;20041;-39
2023/07/06 00:03:32;;;;;;;1.67;1.20;;;16.10;98.40;;;16.00;78.23;97386.22;5028386;28;20368;-40
2023/07/06 00:05:59;;;;;;;2.42;1.40;;;16.20;98.30;;;15.93;79.05;97374.25;5015830;28;20098;-39
2023/07/06 00:08:27;;;;;;;2.60;1.33;;;16.20;98.50;;;15.94;78.78;97374.16;5031866;28;20029;-38
2023/07/06 00:10:54;;;;;;;3.45;1.50;;;16.20;98.40;;;16.00;76.90;97386.22;5031515;28;20029;-38
2023/07/06 00:13:20;;;;;;;2.50;1.67;;;16.20;98.10;;;15.99;78.55;97381.88;5008716;28;20036;-38
2023/07/06 00:15:48;;;;;;;1.90;1.40;;;16.20;98.50;;;15.94;78.99;97384.78;5030697;28;20033;-38
2023/07/06 00:18:15;;;;;;;3.17;1.70;;;16.10;98.50;;;15.88;78.24;97379.84;5040294;28;20048;-39
2023/07/06 00:20:41;;;;;;;4.03;1.67;;;16.10;98.40;;;15.78;78.52;97382.16;5033950;28;20438;-39
2023/07/06 00:23:09;;;;;;;1.38;1.25;;;16.00;98.50;;;15.68;78.61;97377.44;5029598;28;20033;-40
2023/07/06 00:25:41;;;;;;;3.90;1.67;;;15.90;98.40;;;15.58;80.71;97383.28;5034229;28;20029;-39
2023/07/06 00:28:14;;;;;;;2.25;1.30;;;15.80;98.90;;;15.45;82.99;97388.47;5032895;28;20021;-39
2023/07/06 00:30:52;;;;;;;2.75;1.58;;;15.70;99.40;;;15.41;84.66;97386.03;5026146;28;20120;-39
2023/07/06 00:33:20;;;;;;;2.35;1.45;;;15.60;99.80;;;15.33;84.41;97388.28;5011241;28;20029;-39
2023/07/06 00:35:47;;;;;;;2.80;1.30;;;15.50;99.70;;;15.31;84.08;97384.84;5031666;28;20411;-39
2023/07/06 00:38:18;;;;;;;2.13;1.40;;;15.50;99.70;;;15.32;83.86;97389.22;5024525;28;20549;-40
2023/07/06 00:40:48;;;;;;;3.70;1.50;;;15.50;99.70;;;15.35;84.08;97384.59;5033983;28;20091;-39
2023/07/06 00:43:18;;;;;;;3.17;1.60;;;15.60;99.80;;;15.38;85.59;97388.88;5038905;28;20032;-39
2023/07/06 00:45:45;;;;;;;2.25;1.50;;;15.60;99.90;;;15.40;84.89;97387.00;5037517;28;20033;-39
2023/07/06 00:48:32;;;;;;;2.83;1.67;;;15.60;99.90;;;15.42;83.18;97388.63;5030286;28;20029;-39
2023/07/06 00:51:12;;;;;;;1.92;1.30;;;15.60;99.70;;;15.45;81.36;97391.13;5033652;28;20036;-38
2023/07/06 00:53:43;;;;;;;1.70;1.30;;;15.60;99.40;;;15.48;80.55;97384.75;5032989;28;20044;-38
2023/07/06 00:56:13;;;;;;;1.98;1.30;;;15.70;99.60;;;15.49;79.99;97385.59;5037586;28;20605;-38
2023/07/06 00:58:43;;;;;;;4.60;1.80;;;15.70;99.10;;;15.48;80.70;97387.41;5016747;28;20124;-39
2023/07/06 01:01:11;;;;;;;3.17;1.58;;;15.70;99.30;;;15.42;81.66;97380.66;5035756;28;20025;-40
2023/07/06 01:03:43;;;;;;;2.40;1.45;;;15.60;99.50;;;15.36;82.86;97380.13;5026145;28;20037;-39
2023/07/06 01:06:13;;;;;;;;;;;15.60;99.80;;;15.29;83.27;97384.97;5013027;28;20056;-39
2023/07/06 01:08:39;;;;;;;2.50;1.60;;;15.50;99.80;;;15.23;83.16;97388.78;5032090;28;19912;-39
2023/07/06 01:11:08;;;;;;;2.50;1.35;;;15.40;99.80;;;15.18;82.68;97384.69;5021482;28;20039;-39
2023/07/06 01:13:34;;;;;;;2.85;1.83;;;15.40;99.80;;;15.17;82.44;97385.63;5036960;28;20026;-39
2023/07/06 01:16:14;;;;;;;2.45;1.77;;;15.30;99.70;;;15.12;84.08;97374.41;5042443;28;20025;-39
2023/07/06 01:18:55;;;;;;;2.30;1.55;;;15.30;99.90;;;15.07;86.52;97375.53;5022441;28;20033;-39
2023/07/06 01:21:41;;;;;;;2.85;1.60;;;15.30;99.90;;;15.01;86.53;97378.50;5034312;28;20032;-38
2023/07/06 01:24:34;;;;;;;2.30;1.42;;;15.20;99.90;;;14.97;86.92;97379.63;5020392;28;20048;-38
2023/07/06 01:27:32;;;;;;;3.67;1.80;;;15.20;99.90;;;14.88;88.76;97361.56;5030648;28;20047;-39
2023/07/06 01:30:35;;;;;;;2.85;1.58;;;15.20;99.90;;;14.86;90.12;97366.94;5020147;28;20056;-38
2023/07/06 01:33:10;;;;;;;2.15;1.50;;;15.10;99.90;;;14.79;90.81;97370.88;5021595;28;20159;-39
2023/07/06 01:36:01;;;;;;;3.38;1.80;;;15.00;99.90;;;14.72;89.29;97366.84;5018602;28;20033;-39
2023/07/06 01:38:28;;;;;;;2.67;1.58;;;15.00;99.90;;;14.66;89.35;97361.84;5057118;22;20025;-34
2023/07/06 01:40:55;;;;;;;1.70;1.20;;;14.90;99.90;;;14.62;88.18;97358.50;5049486;28;20048;-37
2023/07/06 01:43:20;;;;;;;2.60;1.55;;;14.90;99.90;;;14.61;87.11;97354.16;5055081;28;20089;-36
2023/07/06 01:45:47;;;;;;;2.58;1.55;;;14.80;99.90;;;14.57;88.44;97357.88;5058053;28;20036;-36
2023/07/06 01:48:15;;;;;;;2.05;1.60;;;14.80;99.90;;;14.51;90.21;97350.22;5051097;28;20029;-36
2023/07/06 01:51:18;;;;;;;2.92;1.65;;;14.70;99.90;;;14.43;91.81;97355.94;5051537;28;20052;-37
2023/07/06 01:53:49;;;;;;;2.25;1.45;;;14.70;99.90;;;14.40;91.36;97363.22;5029789;28;20616;-36
2023/07/06 01:56:25;;;;;;;2.20;1.63;;;14.60;99.90;;;14.38;91.56;97365.09;5043487;28;20029;-37
2023/07/06 01:58:56;;;;;;;2.50;1.50;;;14.60;99.90;;;14.36;94.22;97361.69;5059722;28;20029;-37
2023/07/06 02:01:29;;;;;;;2.67;1.73;;;14.60;99.90;;;14.22;94.41;97343.81;5058959;28;20402;-34
2023/07/06 02:03:55;;;;;;;3.55;1.65;;;14.60;99.90;;;14.35;95.87;97363.44;5045037;28;20367;-37
2023/07/06 02:06:22;;;;;;;2.33;1.60;;;14.60;99.90;;;14.37;95.06;97363.38;5043777;28;20585;-37
2023/07/06 02:08:49;;;;;;;5.93;1.63;;;14.60;99.90;;;14.38;94.99;97357.16;5044664;28;20024;-35
2023/07/06 02:11:19;;;;;;;2.83;1.50;;;14.60;99.90;;;14.36;94.65;97359.88;5053040;28;20486;-34
2023/07/06 02:13:44;;;;;;;2.45;1.70;;;14.60;99.90;;;14.33;94.91;97352.91;5051933;28;20131;-35
2023/07/06 02:16:10;;;;;;;2.60;1.70;;;14.60;99.90;;;14.27;95.86;97355.91;5053222;28;20028;-35
2023/07/06 02:18:36;;;;;;;2.95;1.88;;;14.50;99.90;;;14.25;97.02;97365.75;5053606;28;20090;-37
2023/07/06 02:21:03;;;;;;;2.40;1.52;;;14.50;99.90;;;14.24;96.48;97357.84;5048004;28;20056;-37
2023/07/06 02:23:29;;;;;;;3.55;1.70;;;14.50;99.90;;;14.18;95.93;97367.00;5049152;28;20359;-34
2023/07/06 02:25:56;;;;;;;2.40;1.58;;;14.40;99.90;;;14.16;94.87;97366.22;5051456;28;20036;-34
2023/07/06 02:28:42;;;;;;;3.40;1.50;;;14.40;99.90;;;14.07;95.50;97356.09;5050531;28;20036;-35
2023/07/06 02:31:08;;;;;;;3.33;1.60;;;14.40;99.90;;;14.06;94.90;97352.56;5045837;28;20387;-35
2023/07/06 02:33:34;;;;;;;2.80;1.65;;;14.30;99.90;;;14.07;93.84;97362.25;5055290;28;20077;-34
2023/07/06 02:36:00;;;;;;;3.20;1.70;;;14.30;99.90;;;13.99;93.93;97364.44;5054028;28;20309;-35
2023/07/06 02:38:29;;;;;;;2.60;1.60;;;14.30;99.90;;;13.92;94.02;97350.63;5049641;28;20032;-37
2023/07/06 02:40:56;;;;;;;2.42;1.85;;;14.20;99.90;;;13.90;95.26;97365.75;5051581;28;20032;-34
2023/07/06 02:43:22;;;;;;;3.05;1.73;;;14.10;99.90;;;13.87;94.89;97367.69;5047799;28;20041;-34
2023/07/06 02:45:48;;;;;;;4.07;1.80;;;14.10;99.90;;;13.85;95.62;97367.78;5049655;28;20107;-36
2023/07/06 02:48:14;;;;;;;3.42;1.75;;;14.10;99.90;;;13.83;95.53;97367.00;5053515;28;20051;-36
2023/07/06 02:50:40;;;;;;;3.55;1.80;;;14.10;99.90;;;13.87;96.14;97368.56;5051519;28;20482;-35
2023/07/06 02:53:06;;;;;;;2.83;1.70;;;14.10;99.90;;;13.90;95.22;97352.50;5049172;28;20036;-35
2023/07/06 02:55:32;;;;;;;3.20;2.08;;;14.20;99.90;;;13.95;94.86;97365.53;5047998;28;20032;-35
2023/07/06 02:57:58;;;;;;;3.35;1.63;;;14.20;99.90;;;14.01;94.26;97359.03;5051137;28;20635;-35
2023/07/06 03:00:25;;;;;;;2.22;1.42;;;14.20;99.90;;;14.04;93.77;97358.91;5053003;28;20272;-35
2023/07/06 03:02:51;;;;;;;3.33;1.85;;;14.30;99.90;;;14.09;93.28;97356.88;5052185;28;20025;-35
2023/07/06 03:05:22;;;;;;;3.67;1.98;;;14.30;99.90;;;14.11;92.54;97358.50;5052105;28;20410;-35
2023/07/06 03:07:51;;;;;;;3.35;1.85;;;14.40;99.90;;;14.11;93.06;97353.19;5051679;28;20054;-36
2023/07/06 03:10:19;;;;;;;3.47;1.95;;;14.40;99.90;;;14.11;92.09;97352.34;5051908;28;20066;-35
2023/07/06 03:12:46;;;;;;;3.47;1.90;;;14.30;99.90;;;14.09;91.93;97347.13;5050080;28;20285;-35
2023/07/06 03:15:14;;;;;;;5.75;2.05;;;14.40;99.90;;;14.06;92.17;97343.75;5048643;28;20456;-35
2023/07/06 03:17:42;;;;;;;4.18;2.10;;;14.30;99.90;;;13.94;92.65;97335.50;5051441;28;20204;-35
2023/07/06 03:20:15;;;;;;;3.72;2.03;;;14.30;99.90;;;13.96;93.07;97345.16;5053607;28;20029;-36
2023/07/06 03:22:45;;;;;;;3.13;1.60;;;14.20;99.90;;;13.91;93.43;97353.38;5053656;28;20037;-36
2023/07/06 03:25:13;;;;;;;3.08;2.10;;;14.10;99.90;;;13.84;94.66;97347.50;5051883;28;20112;-35
2023/07/06 03:27:40;;;;;;;3.58;1.90;;;14.10;99.90;;;13.72;95.66;97342.84;5045373;28;20407;-36
2023/07/06 03:30:10;;;;;;;6.53;2.30;;;14.00;99.90;;;13.75;97.12;97348.00;5049872;28;20036;-36
2023/07/06 03:32:37;;;;;;;3.08;2.08;;;14.00;99.90;;;13.71;97.41;97351.69;5051266;28;20482;-36
2023/07/06 03:35:12;;;;;;;4.10;2.00;;;13.90;99.90;;;13.69;97.83;97358.88;5051940;28;20111;-35
2023/07/06 03:37:38;;;;;;;2.95;1.55;;;13.90;99.90;;;13.66;97.81;97353.75;5048861;28;20446;-35
2023/07/06 03:40:12;;;;;;;5.47;2.13;;;13.90;99.90;;;13.64;97.70;97358.25;5047471;28;20035;-36
2023/07/06 03:42:44;;;;;;;3.15;1.90;;;13.90;99.90;;;13.62;99.16;97352.16;5051528;28;20033;-35
2023/07/06 03:45:12;;;;;;;;;;;13.80;99.90;;;13.55;99.96;97346.34;5052530;28;20029;-35
2023/07/06 03:47:38;;;;;;;2.92;1.73;;;13.80;99.90;;;13.56;99.87;97346.25;5048181;28;20288;-35
2023/07/06 03:50:09;;;;;;;3.40;1.90;;;13.80;99.90;;;13.55;100.00;97346.34;5049398;28;20432;-35
2023/07/06 03:52:39;;;;;;;4.10;1.83;;;13.80;99.90;;;13.54;100.00;97349.91;5051234;28;20029;-36
2023/07/06 03:55:26;;;;;;;3.50;1.98;;;13.80;99.90;;;13.52;100.00;97355.28;5042019;28;20029;-36
2023/07/06 03:57:52;;;;;;;3.10;2.08;;;13.80;99.90;;;13.52;100.00;97349.97;5050388;28;20032;-35
2023/07/06 04:00:22;;;;;;;2.65;1.67;;;13.80;99.90;;;13.51;100.00;97347.41;5047358;28;20024;-35
2023/07/06 04:02:54;;;;;;;2.90;1.73;;;13.80;99.90;;;13.52;100.00;97344.69;5052622;28;20052;-36
2023/07/06 04:05:31;;;;;;;5.10;2.30;;;13.70;99.90;;;13.51;100.00;97353.59;5048172;28;20450;-35
2023/07/06 04:07:59;;;;;;;2.47;1.65;;;13.70;99.90;;;13.46;100.00;97349.41;5037867;28;20297;-35
2023/07/06 04:10:28;;;;;;;4.90;2.03;;;13.70;99.90;;;13.41;100.00;97348.81;5041072;28;20033;-35
2023/07/06 04:12:54;;;;;;;4.07;1.90;;;13.60;99.90;;;13.39;100.00;97354.19;5052047;28;20120;-35
2023/07/06 04:15:20;;;;;;;3.88;1.83;;;13.60;99.90;;;13.40;100.00;97353.22;5049092;28;20482;-36
2023/07/06 04:17:52;;;;;;;3.55;2.00;;;13.60;99.90;;;13.42;100.00;97354.00;5050171;28;20066;-36
2023/07/06 04:20:25;;;;;;;3.27;2.10;;;13.70;99.90;;;13.46;100.00;97357.38;5051500;28;20043;-35
2023/07/06 04:22:57;;;;;;;3.33;1.80;;;13.70;99.90;;;13.49;100.00;97352.78;5043848;28;20517;-36
2023/07/06 04:25:31;;;;;;;4.10;2.17;;;13.70;99.90;;;13.58;100.00;97361.22;5045298;28;20407;-36
2023/07/06 04:28:07;;;;;;;3.20;2.10;;;13.80;99.90;;;13.63;100.00;97362.69;5055098;28;20023;-36
2023/07/06 04:30:36;;;;;;;3.22;2.05;;;13.80;99.90;;;13.68;100.00;97359.84;5045324;28;20465;-36
2023/07/06 04:33:04;;;;;;;3.25;1.83;;;13.90;99.90;;;13.74;100.00;97360.34;5048999;28;20043;-36
2023/07/06 04:35:31;;;;;;;3.25;1.90;;;13.90;99.90;;;13.79;100.00;97365.44;5041185;28;20077;-36
2023/07/06 04:37:59;;;;;;;3.95;1.92;;;14.00;99.90;;;13.84;100.00;97360.78;5050912;28;20043;-36
2023/07/06 04:40:26;;;;;;;2.90;2.00;;;14.10;99.90;;;13.89;100.00;97355.22;5043987;28;20113;-36
2023/07/06 04:42:53;;;;;;;4.10;2.10;;;14.10;99.90;;;13.85;100.00;97343.91;5047743;28;20021;-36
2023/07/06 04:45:21;;;;;;;3.85;1.88;;;14.20;99.90;;;14.01;100.00;97361.69;5045178;28;20032;-36
2023/07/06 04:47:48;;;;;;;5.15;2.00;;;14.20;99.90;;;14.07;100.00;97366.72;5046581;28;20020;-37
2023/07/06 04:50:17;;;;;;;4.80;2.30;;;14.30;99.90;;;14.15;100.00;97366.28;5051039;28;20437;-37
2023/07/06 04:52:45;;;;;;;3.63;2.55;;;14.40;99.90;;;14.25;100.00;97365.75;5039372;28;20269;-37
2023/07/06 04:55:11;;;;;;;5.97;2.20;;;14.50;99.90;;;14.37;100.00;97373.97;5049322;28;20110;-37
2023/07/06 04:57:37;;;;;;;2.97;1.92;;;14.60;99.90;;;14.48;100.00;97379.56;5048517;28;20166;-37
2023/07/06 05:00:17;;;;;;;2.83;2.10;;;14.70;99.90;;;14.59;100.00;97376.38;5044158;28;20046;-39
2023/07/06 05:02:43;;;;;;;5.18;1.98;;;14.80;99.90;;;14.56;100.00;97357.97;5046040;28;20414;-37
2023/07/06 05:05:11;;;;;;;4.95;2.88;;;14.90;99.90;;;14.75;100.00;97376.41;5046132;28;20041;-37
2023/07/06 05:07:38;;;;;;;4.53;2.35;;;15.00;99.90;;;14.81;100.00;97378.75;5022459;28;20838;-37
2023/07/06 05:10:05;;;;;;;7.72;2.50;;;15.00;99.90;;;14.83;100.00;97387.50;5040879;28;20025;-37
2023/07/06 05:12:31;;;;;;;4.28;2.38;;;15.00;99.90;;;14.87;100.00;97392.53;5049263;28;20402;-36
2023/07/06 05:14:57;;;;;;;3.53;2.10;;;15.10;99.90;;;14.96;100.00;97392.97;5051266;28;20033;-35
2023/07/06 05:17:22;;;;;;;5.10;2.40;;;15.20;99.90;;;15.07;100.00;97394.13;5049630;28;22363;-36
2023/07/06 05:19:48;;;;;;;3.92;2.20;;;15.20;99.90;;;15.23;100.00;97390.59;5053318;28;20017;-36
2023/07/06 05:22:18;;;;;;;3.13;2.10;;;15.40;99.90;;;15.51;99.19;97392.56;5049575;28;20025;-36
2023/07/06 05:24:44;;;;;;;3.22;2.22;;;15.50;99.90;;;16.05;94.75;97386.81;5047083;28;20062;-36
2023/07/06 05:27:10;;;;;;;3.38;2.05;;;15.90;99.90;;;16.85;87.82;97395.31;5052395;28;20037;-36
2023/07/06 05:29:36;;;;;;;2.88;1.90;;;16.30;99.90;;;17.52;81.08;97391.97;5052560;28;20029;-37
2023/07/06 05:32:02;;;;;;;3.10;1.92;;;16.80;99.90;;;18.25;76.06;97388.00;5053177;28;20056;-37
2023/07/06 05:34:28;;;;;;;4.60;1.90;;;17.40;99.90;;;19.00;70.47;97401.50;5052994;28;20064;-39
2023/07/06 05:36:53;;;;;;;3.88;1.80;;;17.90;99.90;;;19.45;67.55;97401.84;5057863;28;20394;-37
2023/07/06 05:39:19;;;;;;;2.92;1.85;;;18.30;99.90;;;19.38;66.72;97402.41;5054877;28;20036;-37
2023/07/06 05:41:45;;;;;;;2.80;1.70;;;18.50;99.90;;;19.17;70.09;97405.66;5055767;28;20103;-37
2023/07/06 05:44:10;;;;;;;3.67;2.20;;;18.50;99.90;;;18.72;72.85;97391.91;5059488;28;20489;-37
2023/07/06 05:46:36;;;;;;;4.30;2.20;;;18.40;99.90;;;18.43;74.61;97400.13;5055347;28;20060;-38
2023/07/06 05:49:02;;;;;;;3.17;1.90;;;18.20;99.90;;;18.15;74.90;97413.66;5057698;28;20020;-37
2023/07/06 05:51:27;;;;;;;5.50;2.15;;;18.00;99.90;;;17.97;77.20;97419.25;5057592;28;20051;-37
2023/07/06 05:53:53;;;;;;;3.75;2.22;;;18.00;99.90;;;17.89;75.73;97419.78;5055772;28;20025;-36
2023/07/06 05:56:21;;;;;;;3.72;2.08;;;17.90;99.90;;;17.82;77.32;97415.75;5058867;28;20025;-36
2023/07/06 05:58:47;;;;;;;4.43;2.20;;;17.90;99.90;;;17.85;79.32;97420.03;5057511;28;20529;-36
2023/07/06 06:01:13;;;;;;;4.18;1.85;;;17.90;99.90;;;17.86;79.83;97425.28;5049973;28;20056;-36
2023/07/06 06:03:40;;;;;;;4.25;2.05;;;17.90;99.90;;;17.83;80.23;97421.94;5058760;28;20438;-36
2023/07/06 06:06:07;;;;;;;5.13;2.28;;;17.90;99.90;;;17.87;79.79;97424.34;5061549;28;20575;-36
2023/07/06 06:08:32;;;;;;;2.83;1.95;;;18.00;99.90;;;18.03;80.19;97428.66;5054939;28;20570;-36
2023/07/06 06:11:00;;;;;;;3.58;2.13;;;18.10;99.90;;;18.18;79.23;97432.97;5057660;28;20521;-36
2023/07/06 06:13:27;;;;;;;3.70;2.03;;;18.20;99.90;;;18.37;77.00;97437.06;5062623;28;20039;-36
2023/07/06 06:15:53;;;;;;;3.05;2.00;;;18.40;99.90;;;18.53;75.52;97436.88;5063228;28;20051;-36
2023/07/06 06:18:19;;;;;;;4.18;2.05;;;18.50;99.90;;;18.58;74.45;97438.25;5056282;28;20063;-36
2023/07/06 06:20:44;;;;;;;8.52;2.47;;;18.60;99.90;;;18.64;74.50;97434.31;5060387;28;20459;-36
2023/07/06 06:23:10;;;;;;;8.73;2.40;;;18.70;99.90;;;18.71;74.53;97435.59;5058112;28;20029;-36
2023/07/06 06:25:40;;;;;;;6.93;2.53;;;18.70;99.90;;;18.84;74.47;97440.97;5056382;28;20448;-36
2023/07/06 06:28:09;;;;;;;3.95;2.25;;;18.80;99.90;;;18.89;72.19;97430.81;5062283;28;20020;-36
2023/07/06 06:30:38;;;;;;;5.47;2.45;;;18.90;99.90;;;19.01;70.83;97445.16;5059297;28;20116;-36
2023/07/06 06:33:05;;;;;;;3.92;2.38;;;19.00;99.90;;;19.12;69.57;97441.72;5057951;28;20475;-36
2023/07/06 06:35:33;;;;;;;3.38;2.00;;;19.10;99.90;;;19.26;69.34;97441.59;5062839;28;20036;-36
2023/07/06 06:38:03;;;;;;;5.38;1.80;;;19.20;99.90;;;19.37;64.60;97440.81;5056736;28;20036;-36
2023/07/06 06:40:30;;;;;;;2.85;1.83;;;19.30;99.90;;;19.50;61.58;97440.78;5058804;28;20043;-36
2023/07/06 06:42:57;;;;;;;2.75;1.95;;;19.40;98.90;;;19.58;61.97;97452.63;5060706;28;20403;-36
2023/07/06 06:45:23;;;;;;;3.75;2.35;;;19.50;98.90;;;19.57;61.72;97437.53;5054743;28;20037;-36
2023/07/06 06:47:50;;;;;;;2.72;1.75;;;19.50;99.00;;;19.67;57.95;97447.56;5057990;28;20059;-36
2023/07/06 06:50:16;;;;;;;2.55;1.90;;;19.60;97.60;;;19.59;55.71;97443.63;5057517;28;20051;-36
2023/07/06 06:52:43;;;;;;;4.40;2.20;;;19.60;96.60;;;19.66;58.73;97449.38;5060527;28;20082;-36
2023/07/06 06:55:10;;;;;;;3.78;2.25;;;19.60;97.10;;;19.70;54.96;97448.19;5058358;28;20029;-36
2023/07/06 06:57:37;;;;;;;6.28;2.20;;;19.60;96.20;;;19.76;55.10;97446.94;5058806;28;20396;-36
2023/07/06 07:00:09;;;;;;;4.47;1.90;;;19.60;96.30;;;19.86;54.09;97453.31;5058817;28;20039;-36
2023/07/06 07:02:38;;;;;;;5.13;2.20;;;19.70;96.20;;;19.98;54.42;97454.22;5058422;28;20127;-36
2023/07/06 07:05:12;;;;;;;3.88;1.75;;;19.80;96.00;;;20.08;54.76;97449.03;5055908;28;20032;-36
2023/07/06 07:07:38;;;;;;;3.03;1.95;;;19.90;96.10;;;20.16;53.93;97447.50;5054155;28;20029;-36
2023/07/06 07:10:09;;;;;;;3.60;2.15;;;20.00;95.80;;;20.19;54.12;97449.09;5057234;28;20036;-36
2023/07/06 07:12:42;;;;;;;6.68;2.60;;;20.10;95.60;;;20.21;52.10;97453.34;5054496;28;20029;-37
2023/07/06 07:15:10;;;;;;;4.93;2.20;;;20.10;94.60;;;20.13;49.66;97449.53;5057162;28;20020;-37
2023/07/06 07:17:37;;;;;;;5.50;2.17;;;20.10;93.30;;;20.09;50.56;97440.88;5056299;28;20389;-36
2023/07/06 07:20:05;;;;;;;4.35;2.38;;;20.10;93.60;;;20.15;51.27;97428.84;5055927;28;20056;-36
2023/07/06 07:22:30;;;;;;;4.82;2.30;;;20.20;94.10;;;20.39;49.99;97448.44;5054310;28;20501;-37
2023/07/06 07:24:58;;;;;;;4.30;1.92;;;20.30;93.30;;;20.48;49.89;97456.75;5058988;28;20032;-37
2023/07/06 07:27:26;;;;;;;4.82;2.13;;;20.40;93.30;;;20.39;48.50;97452.94;5056221;28;20032;-37
2023/07/06 07:29:54;;;;;;;5.57;2.20;;;20.30;92.40;;;20.27;48.38;97454.72;5059737;28;20175;-36
2023/07/06 07:32:20;;;;;;;3.20;1.90;;;20.30;92.10;;;20.10;48.86;97449.78;5053361;28;20055;-36
2023/07/06 07:34:50;;;;;;;4.15;1.90;;;20.20;92.20;;;20.13;49.01;97446.88;5054293;28;20119;-36
2023/07/06 07:37:19;;;;;;;4.40;2.00;;;20.20;92.60;;;20.18;49.51;97444.69;5055526;28;20116;-36
2023/07/06 07:39:45;;;;;;;3.40;1.70;;;20.20;92.60;;;20.30;48.81;97446.47;5075703;23;20115;-34
2023/07/06 07:42:12;;;;;;;3.38;1.88;;;20.20;92.40;;;20.35;49.18;97440.72;5056332;28;20356;-35
2023/07/06 07:44:39;;;;;;;2.50;1.45;;;20.30;92.30;;;20.49;51.24;97445.03;5052092;28;20721;-35
2023/07/06 07:47:05;;;;;;;7.57;1.90;;;20.40;92.90;;;20.43;48.49;97442.84;5045118;28;20024;-35
2023/07/06 07:49:31;;;;;;;6.25;1.85;;;20.50;91.80;;;20.50;48.71;97446.78;5047932;28;20384;-35
2023/07/06 07:51:57;;;;;;;2.92;1.92;;;20.50;92.00;;;20.41;48.34;97435.78;5049167;28;20103;-35
2023/07/06 07:54:23;;;;;;;7.15;1.92;;;20.50;91.80;;;20.53;51.17;97447.38;5044771;28;20037;-35
2023/07/06 07:56:53;;;;;;;3.35;1.48;;;20.50;92.80;;;20.66;51.32;97439.28;5050097;28;20040;-35
2023/07/06 07:59:25;;;;;;;3.47;1.98;;;20.60;93.90;;;20.81;48.22;97441.75;5044562;28;20039;-35
2023/07/06 08:01:51;;;;;;;4.30;1.50;;;20.70;92.00;;;20.89;47.29;97444.66;5046141;28;20376;-35
2023/07/06 08:04:17;;;;;;;3.05;1.60;;;20.80;91.10;;;20.96;48.03;97445.88;5044038;28;20602;-35
2023/07/06 08:06:43;;;;;;;2.45;1.85;;;20.90;91.10;;;21.09;48.10;97445.81;5043358;28;20747;-35
2023/07/06 08:09:09;;;;;;;5.28;2.28;;;21.00;91.40;;;21.11;46.55;97433.97;5045826;28;20115;-35
2023/07/06 08:11:38;;;;;;;3.17;1.70;;;21.10;90.60;;;21.15;46.77;97443.47;5050388;28;20082;-35
2023/07/06 08:14:08;;;;;;;3.55;1.67;;;21.10;90.70;;;21.22;48.08;97440.31;5046950;28;20047;-35
2023/07/06 08:16:34;;;;;;;4.22;1.73;;;21.20;91.40;;;21.26;48.47;97431.03;5048508;28;20661;-35
2023/07/06 08:19:02;;;;;;;3.78;2.10;;;21.30;91.50;;;21.40;48.14;97440.66;5043133;28;20083;-35
2023/07/06 08:21:28;;;;;;;4.30;1.95;;;21.30;91.30;;;21.48;46.67;97436.44;5044691;28;20029;-35
2023/07/06 08:23:54;;;;;;;3.58;1.80;;;21.40;90.70;;;21.54;45.62;97446.66;5045048;28;20033;-35
2023/07/06 08:26:21;;;;;;;3.72;1.70;;;21.50;89.80;;;21.63;45.22;97441.53;5045408;28;20032;-35
2023/07/06 08:28:46;;;;;;;6.05;1.90;;;21.50;88.90;;;21.75;47.19;97437.84;5048430;28;20060;-35
2023/07/06 08:31:17;;;;;;;2.83;1.80;;;21.60;90.60;;;21.82;45.58;97433.69;5045106;28;20028;-35
2023/07/06 08:33:46;;;;;;;3.75;1.83;;;21.80;89.50;;;21.86;44.93;97437.81;5048388;28;20036;-35
2023/07/06 08:36:15;;;;;;;3.75;1.65;;;21.90;88.30;;;21.93;45.02;97446.22;5043494;28;20155;-35
2023/07/06 08:38:43;;;;;;;2.97;1.60;;;21.90;88.40;;;22.03;44.09;97446.31;5052484;28;20032;-35
2023/07/06 08:41:33;;;;;;;4.35;1.90;;;22.00;87.00;;;22.10;44.02;97437.59;5044486;28;20025;-35
2023/07/06 08:44:03;;;;;;;3.33;1.90;;;22.10;86.40;;;22.22;45.30;97432.19;5054176;28;20390;-35
2023/07/06 08:46:38;;;;;;;8.98;1.88;;;22.20;87.70;;;22.18;43.06;97425.34;5045978;28;20044;-35
2023/07/06 08:49:17;;;;;;;4.10;2.10;;;22.20;85.40;;;22.15;44.53;97434.53;5059417;28;20017;-35
2023/07/06 08:51:44;;;;;;;2.88;1.95;;;22.10;87.10;;;21.91;43.31;97443.66;5046977;28;20100;-35
2023/07/06 08:54:23;;;;;;;7.63;1.92;;;22.00;84.10;;;21.53;43.80;97444.09;5041616;28;20033;-35
2023/07/06 08:56:50;;;;;;;4.43;1.80;;;21.60;84.80;;;21.29;44.38;97439.69;5047013;28;20017;-35
2023/07/06 08:59:38;;;;;;;2.38;1.48;;;21.40;85.10;;;21.12;47.06;97435.69;5041788;28;20048;-35
2023/07/06 09:02:22;;;;;;;2.85;1.80;;;21.20;87.10;;;21.19;47.41;97429.81;5047342;28;20036;-35
2023/07/06 09:04:51;;;;;;;3.10;1.80;;;21.20;90.00;;;21.44;46.24;97437.59;5047226;28;20025;-35
2023/07/06 09:07:30;;;;;;;3.08;2.00;;;21.40;88.60;;;21.77;42.29;97429.66;5050922;28;20215;-35
2023/07/06 09:09:57;;;;;;;3.25;1.92;;;21.80;84.00;;;22.03;42.75;97422.97;5050196;28;20048;-35
2023/07/06 09:12:36;;;;;;;6.20;1.85;;;22.00;83.00;;;22.48;42.10;97424.63;5045327;28;20025;-35
2023/07/06 09:15:03;;;;;;;5.68;2.13;;;22.40;82.10;;;22.85;43.61;97426.88;5049562;28;20029;-35
2023/07/06 09:17:29;;;;;;;4.30;2.15;;;22.80;83.40;;;22.85;41.43;97425.03;5044550;28;20617;-35
2023/07/06 09:19:56;;;;;;;5.13;2.28;;;22.90;81.30;;;22.78;40.44;97426.53;5045476;28;20037;-35
2023/07/06 09:22:23;;;;;;;4.47;2.10;;;22.90;78.80;;;22.92;40.36;97411.06;5042129;28;20067;-35
2023/07/06 09:24:50;;;;;;;5.05;2.40;;;23.00;79.10;;;23.27;39.11;97421.41;5044188;28;20106;-35
2023/07/06 09:27:26;;;;;;;3.13;1.88;;;23.20;77.80;;;23.36;39.59;97417.91;5044615;28;20358;-35
2023/07/06 09:30:20;;;;;;;5.53;2.00;;;23.30;77.50;;;23.14;40.94;97410.06;5044469;28;20393;-35
2023/07/06 09:32:47;;;;;;;2.83;2.00;;;23.10;77.70;;;22.96;41.31;97415.16;5044352;28;20077;-35
2023/07/06 09:35:20;;;;;;;3.80;2.10;;;23.00;80.70;;;22.76;40.62;97427.66;5043777;28;20139;-35
2023/07/06 09:37:48;;;;;;;3.30;2.30;;;22.70;79.10;;;22.62;40.70;97421.63;5045208;28;20117;-35
2023/07/06 09:40:14;;;;;;;6.05;2.17;;;22.70;78.20;;;22.32;39.22;97424.25;5047970;28;20017;-35
2023/07/06 09:42:41;;;;;;;2.10;1.60;;;22.50;75.80;;;22.33;40.86;97426.81;5048208;28;20033;-35
2023/07/06 09:45:29;;;;;;;2.88;2.00;;;22.40;77.20;;;22.17;39.70;97421.00;5049978;28;20052;-35
2023/07/06 09:48:03;;;;;;;4.85;2.17;;;22.30;76.30;;;22.16;40.79;97425.47;5050760;28;20037;-35
2023/07/06 09:50:43;;;;;;;2.42;1.92;;;22.20;77.30;;;22.04;41.27;97426.53;5048587;28;20021;-35
2023/07/06 09:53:27;;;;;;;3.53;1.80;;;22.10;78.60;;;22.08;40.56;97423.44;5049614;28;20020;-35
2023/07/06 09:55:54;;;;;;;4.25;2.20;;;22.20;77.90;;;22.24;40.36;97431.06;5048780;28;20067;-35
2023/07/06 09:58:25;;;;;;;4.13;2.33;;;22.40;76.70;;;22.51;39.45;97421.69;5047449;28;20273;-35
2023/07/06 10:01:13;;;;;;;2.77;1.77;;;22.70;75.80;;;22.87;38.79;97430.25;5050698;28;20028;-35
2023/07/06 10:04:20;;;;;;;2.75;1.95;;;22.90;74.50;;;23.30;38.17;97425.69;5046915;28;20805;-35
2023/07/06 10:07:17;;;;;;;2.60;1.85;;;23.30;74.90;;;23.81;36.70;97430.97;5049825;28;20097;-35
2023/07/06 10:09:52;;;;;;;3.63;2.42;;;23.90;72.60;;;24.13;35.16;97424.47;5047905;28;20382;-35
2023/07/06 10:12:31;;;;;;;4.05;2.22;;;24.30;69.90;;;24.35;36.07;97428.75;5051926;28;20489;-35
2023/07/06 10:15:00;;;;;;;5.72;2.30;;;24.50;71.80;;;24.60;36.48;97429.16;5038706;28;20082;-36
2023/07/06 10:17:37;;;;;;;8.18;2.20;;;24.80;70.70;;;24.69;35.67;97422.03;5051670;28;20476;-35
2023/07/06 10:20:17;;;;;;;2.67;1.92;;;25.00;68.80;;;24.93;36.61;97425.13;5046253;28;20124;-35
2023/07/06 10:23:06;;;;;;;4.05;2.08;;;25.10;70.00;;;24.93;35.45;97419.72;5046644;28;20518;-35
2023/07/06 10:25:46;;;;;;;2.17;1.80;;;25.10;68.00;;;24.68;35.40;97420.38;5054941;28;20044;-35
2023/07/06 10:28:31;;;;;;;5.15;2.05;;;24.90;67.10;;;24.57;36.84;97424.91;5047942;28;20080;-35
2023/07/06 10:30:59;;;;;;;3.80;1.83;;;24.70;69.10;;;24.40;37.15;97425.59;5054323;28;20029;-35